createdAt,value
2023-05-11T00:01:13.965Z,12.25
2023-05-11T00:03:41.502Z,12.24
2023-05-11T00:06:08.999Z,12.24
2023-05-11T00:08:36.602Z,12.25
2023-05-11T00:11:08.136Z,12.22
2023-05-11T00:13:35.833Z,12.22
2023-05-11T00:16:04.177Z,12.21
2023-05-11T00:18:31.884Z,12.17
2023-05-11T00:20:59.282Z,12.13
2023-05-11T00:23:26.812Z,12.06
2023-05-11T00:25:54.481Z,12.07
2023-05-11T00:28:22.993Z,12.07
2023-05-11T00:30:50.580Z,12.06
2023-05-11T00:33:18.849Z,12.02
2023-05-11T00:35:49.214Z,12.03
2023-05-11T00:38:17.021Z,12.04
2023-05-11T00:40:44.576Z,12.03
2023-05-11T00:43:12.862Z,12.05
2023-05-11T00:45:40.709Z,12.08
2023-05-11T00:48:08.840Z,12.08
2023-05-11T00:50:36.438Z,12.07
2023-05-11T00:53:04.139Z,12.11
2023-05-11T00:55:31.595Z,12.14
2023-05-11T00:57:59.783Z,12.08
2023-05-11T01:00:27.380Z,12.06
2023-05-11T01:02:55.094Z,12.03
2023-05-11T01:05:22.731Z,12.04
2023-05-11T01:08:06.105Z,12.05
2023-05-11T01:10:57.143Z,12.07
2023-05-11T01:13:33.811Z,12.06
2023-05-11T01:16:09.650Z,12.07
2023-05-11T01:18:51.957Z,12.09
2023-05-11T01:21:20.499Z,12.08
2023-05-11T01:24:11.622Z,12.06
2023-05-11T01:27:03.589Z,12.07
2023-05-11T01:29:47.201Z,12.01
2023-05-11T01:32:21.104Z,11.99
2023-05-11T01:34:58.689Z,11.96
2023-05-11T01:37:26.805Z,11.95
2023-05-11T01:39:58.973Z,11.94
2023-05-11T01:42:35.701Z,11.90
2023-05-11T01:45:06.636Z,11.89
2023-05-11T01:47:37.441Z,11.86
2023-05-11T01:50:07.526Z,11.83
2023-05-11T01:52:37.594Z,11.84
2023-05-11T01:55:06.510Z,11.84
2023-05-11T01:57:36.740Z,11.81
2023-05-11T02:00:05.532Z,11.78
2023-05-11T02:02:41.332Z,11.82
2023-05-11T02:05:10.080Z,11.75
2023-05-11T02:07:39.104Z,11.77
2023-05-11T02:10:07.782Z,11.71
2023-05-11T02:12:36.971Z,11.69
2023-05-11T02:15:06.802Z,11.70
2023-05-11T02:17:34.920Z,11.65
2023-05-11T02:20:04.661Z,11.63
2023-05-11T02:22:35.951Z,11.61
2023-05-11T02:25:05.338Z,11.59
2023-05-11T02:27:33.199Z,11.63
2023-05-11T02:30:00.727Z,11.68
2023-05-11T02:32:30.913Z,11.65
2023-05-11T02:35:13.150Z,11.67
2023-05-11T02:37:45.160Z,11.68
2023-05-11T02:40:17.699Z,11.68
2023-05-11T02:42:51.452Z,11.63
2023-05-11T02:45:19.670Z,11.69
2023-05-11T02:47:56.343Z,11.70
2023-05-11T02:50:30.402Z,11.77
2023-05-11T02:53:03.909Z,11.75
2023-05-11T02:55:32.244Z,11.73
2023-05-11T02:58:00.136Z,11.73
2023-05-11T03:00:28.569Z,11.73
2023-05-11T03:02:56.254Z,11.73
2023-05-11T03:05:24.429Z,11.70
2023-05-11T03:07:54.813Z,11.75
2023-05-11T03:10:24.084Z,11.70
2023-05-11T03:12:51.765Z,11.72
2023-05-11T03:15:21.722Z,11.77
2023-05-11T03:17:53.248Z,11.73
2023-05-11T03:20:22.806Z,11.72
2023-05-11T03:22:51.972Z,11.73
2023-05-11T03:25:21.060Z,11.76
2023-05-11T03:27:52.849Z,11.72
2023-05-11T03:30:21.573Z,11.69
2023-05-11T03:32:52.742Z,11.69
2023-05-11T03:35:23.282Z,11.66
2023-05-11T03:37:52.515Z,11.66
2023-05-11T03:40:23.404Z,11.63
2023-05-11T03:42:55.509Z,11.63
2023-05-11T03:45:28.555Z,11.67
2023-05-11T03:47:57.420Z,11.64
2023-05-11T03:50:25.740Z,11.67
2023-05-11T03:52:56.006Z,11.67
2023-05-11T03:55:23.682Z,11.61
2023-05-11T03:57:51.844Z,11.63
2023-05-11T04:00:19.656Z,11.70
2023-05-11T04:02:47.947Z,11.66
2023-05-11T04:05:15.975Z,11.70
2023-05-11T04:07:46.432Z,11.68
2023-05-11T04:10:13.905Z,11.58
2023-05-11T04:12:41.422Z,11.58
2023-05-11T04:15:09.190Z,11.53
2023-05-11T04:17:36.622Z,11.53
2023-05-11T04:20:04.449Z,11.53
2023-05-11T04:22:31.876Z,11.48
2023-05-11T04:24:59.498Z,11.47
2023-05-11T04:27:27.022Z,11.45
2023-05-11T04:29:54.526Z,11.45
2023-05-11T04:32:22.082Z,11.42
2023-05-11T04:34:49.657Z,11.42
2023-05-11T04:37:21.792Z,11.37
2023-05-11T04:39:49.782Z,11.34
2023-05-11T04:42:17.627Z,11.39
2023-05-11T04:44:53.233Z,11.42
2023-05-11T04:47:20.904Z,11.39
2023-05-11T04:49:49.280Z,11.40
2023-05-11T04:52:16.747Z,11.43
2023-05-11T04:54:47.441Z,11.50
2023-05-11T04:57:15.076Z,11.55
2023-05-11T04:59:42.628Z,11.82
2023-05-11T05:02:11.726Z,12.02
2023-05-11T05:04:39.236Z,12.02
2023-05-11T05:07:07.626Z,11.97
2023-05-11T05:09:35.016Z,11.94
2023-05-11T05:12:02.677Z,11.91
2023-05-11T05:14:30.114Z,11.92
2023-05-11T05:16:57.723Z,11.95
2023-05-11T05:19:25.213Z,11.91
2023-05-11T05:21:52.860Z,11.88
2023-05-11T05:24:20.766Z,11.88
2023-05-11T05:26:48.346Z,11.92
2023-05-11T05:29:15.878Z,12.00
2023-05-11T05:31:43.387Z,12.07
2023-05-11T05:34:10.845Z,12.13
2023-05-11T05:36:39.389Z,12.17
2023-05-11T05:39:12.134Z,12.25
2023-05-11T05:41:42.214Z,12.33
2023-05-11T05:44:10.800Z,12.39
2023-05-11T05:46:39.427Z,12.48
2023-05-11T05:49:07.321Z,12.60
2023-05-11T05:51:35.946Z,12.74
2023-05-11T05:54:03.779Z,12.88
2023-05-11T05:56:32.161Z,13.02
2023-05-11T05:58:59.921Z,13.18
2023-05-11T06:01:28.443Z,13.27
2023-05-11T06:03:56.556Z,13.37
2023-05-11T06:06:26.150Z,13.53
2023-05-11T06:08:54.122Z,13.77
2023-05-11T06:11:21.960Z,14.13
2023-05-11T06:13:49.898Z,14.58
2023-05-11T06:16:17.472Z,15.04
2023-05-11T06:18:46.893Z,15.61
2023-05-11T06:21:15.937Z,16.26
2023-05-11T06:23:43.329Z,16.77
2023-05-11T06:26:11.988Z,17.17
2023-05-11T06:28:40.093Z,17.44
2023-05-11T06:31:11.942Z,17.89
2023-05-11T06:33:41.136Z,18.81
2023-05-11T06:36:14.993Z,19.86
2023-05-11T06:38:42.647Z,20.88
2023-05-11T06:41:11.711Z,21.69
2023-05-11T06:43:39.437Z,22.33
2023-05-11T06:46:19.320Z,23.00
2023-05-11T06:48:47.547Z,23.42
2023-05-11T06:51:14.970Z,23.29
2023-05-11T06:53:43.842Z,23.29
2023-05-11T06:56:11.591Z,23.69
2023-05-11T06:58:39.256Z,23.97
2023-05-11T07:01:08.065Z,24.35
2023-05-11T07:03:35.854Z,24.61
2023-05-11T07:06:03.687Z,24.63
2023-05-11T07:08:31.197Z,24.52
2023-05-11T07:10:58.733Z,23.99
2023-05-11T07:13:26.335Z,23.41
2023-05-11T07:15:56.628Z,23.15
2023-05-11T07:18:25.036Z,22.66
2023-05-11T07:20:52.691Z,22.42
2023-05-11T07:23:27.254Z,22.16
2023-05-11T07:25:58.321Z,21.85
2023-05-11T07:28:29.003Z,21.49
2023-05-11T07:30:56.557Z,21.28
2023-05-11T07:33:23.972Z,21.28
2023-05-11T07:35:52.262Z,21.21
2023-05-11T07:38:19.955Z,21.11
2023-05-11T07:40:47.716Z,21.06
2023-05-11T07:43:15.186Z,21.60
2023-05-11T07:45:42.758Z,22.07
2023-05-11T07:48:10.226Z,22.05
2023-05-11T07:50:38.054Z,21.91
2023-05-11T07:53:05.650Z,21.39
2023-05-11T07:55:33.477Z,20.93
2023-05-11T07:58:00.925Z,20.61
2023-05-11T08:00:28.696Z,20.56
2023-05-11T08:02:56.860Z,20.57
2023-05-11T08:05:24.746Z,20.71
2023-05-11T08:07:52.308Z,21.02
2023-05-11T08:10:20.017Z,21.33
2023-05-11T08:12:47.526Z,21.56
2023-05-11T08:15:14.960Z,21.57
2023-05-11T08:17:43.401Z,21.44
2023-05-11T08:20:11.380Z,21.32
2023-05-11T08:22:38.801Z,21.16
2023-05-11T08:25:07.269Z,21.20
2023-05-11T08:27:34.691Z,21.38
2023-05-11T08:30:02.406Z,21.52
2023-05-11T08:32:30.524Z,21.42
2023-05-11T08:34:58.431Z,21.20
2023-05-11T08:37:26.152Z,20.78
2023-05-11T08:39:53.604Z,20.34
2023-05-11T08:42:23.931Z,20.01
2023-05-11T08:44:55.865Z,19.80
2023-05-11T08:47:24.320Z,19.71
2023-05-11T08:49:53.147Z,19.86
2023-05-11T08:52:20.887Z,20.87
2023-05-11T08:54:48.595Z,21.52
2023-05-11T08:57:17.621Z,21.89
2023-05-11T08:59:48.718Z,22.21
2023-05-11T09:02:19.398Z,22.49
2023-05-11T09:04:49.189Z,22.56
2023-05-11T09:07:17.710Z,22.46
2023-05-11T09:09:47.152Z,22.02
2023-05-11T09:12:15.541Z,21.97
2023-05-11T09:14:43.903Z,22.06
2023-05-11T09:17:11.750Z,22.09
2023-05-11T09:20:00.196Z,21.94
2023-05-11T09:22:30.609Z,21.77
2023-05-11T09:25:02.091Z,21.70
2023-05-11T09:27:29.852Z,21.63
2023-05-11T09:29:57.277Z,21.33
2023-05-11T09:32:24.722Z,21.09
2023-05-11T09:34:52.296Z,20.75
2023-05-11T09:37:19.855Z,20.47
2023-05-11T09:42:26.087Z,20.27
2023-05-11T09:44:54.120Z,20.45
2023-05-11T09:47:22.800Z,20.82
2023-05-11T09:49:50.318Z,21.37
2023-05-11T09:52:19.182Z,22.06
2023-05-11T09:54:52.731Z,22.79
2023-05-11T09:57:28.824Z,23.48
2023-05-11T09:59:57.903Z,24.21
2023-05-11T10:02:32.360Z,24.71
2023-05-11T10:05:10.791Z,25.12
2023-05-11T10:07:38.908Z,25.39
2023-05-11T10:10:08.422Z,25.53
2023-05-11T10:12:38.658Z,25.37
2023-05-11T10:15:08.707Z,25.16
2023-05-11T10:17:37.175Z,24.66
2023-05-11T10:20:06.755Z,24.23
2023-05-11T10:22:34.402Z,24.00
2023-05-11T10:25:03.293Z,23.72
2023-05-11T10:27:32.008Z,23.47
2023-05-11T10:29:59.552Z,23.27
2023-05-11T10:32:28.690Z,22.92
2023-05-11T10:34:56.876Z,22.48
2023-05-11T10:37:24.580Z,22.02
2023-05-11T10:39:52.293Z,21.63
2023-05-11T10:42:38.421Z,21.00
2023-05-11T10:45:26.657Z,20.53
2023-05-11T10:48:12.928Z,19.84
2023-05-11T10:50:49.724Z,19.38
2023-05-11T10:54:00.243Z,19.11
2023-05-11T10:56:33.528Z,18.87
2023-05-11T10:59:35.572Z,18.46
2023-05-11T11:02:04.190Z,18.27
2023-05-11T11:04:51.935Z,18.05
2023-05-11T11:07:20.113Z,17.83
2023-05-11T11:10:05.224Z,17.35
2023-05-11T11:12:35.167Z,16.58
2023-05-11T11:15:07.330Z,16.13
2023-05-11T11:17:36.455Z,16.13
2023-05-11T11:20:08.510Z,16.05
2023-05-11T11:22:39.212Z,16.09
2023-05-11T11:25:13.684Z,16.16
2023-05-11T11:27:41.169Z,16.28
2023-05-11T11:30:22.556Z,16.53
2023-05-11T11:33:10.457Z,16.80
2023-05-11T11:35:43.632Z,17.05
2023-05-11T11:38:19.016Z,17.34
2023-05-11T11:40:55.163Z,17.58
2023-05-11T11:43:24.921Z,17.87
2023-05-11T11:46:00.656Z,18.09
2023-05-11T11:48:36.261Z,18.23
2023-05-11T11:51:10.676Z,18.29
2023-05-11T11:53:38.403Z,18.30
2023-05-11T11:56:11.431Z,18.29
2023-05-11T11:58:42.469Z,18.24
2023-05-11T12:01:21.366Z,18.19
2023-05-11T12:04:23.167Z,18.09
2023-05-11T12:06:57.966Z,18.16
2023-05-11T12:09:27.204Z,18.13
2023-05-11T12:11:55.224Z,18.24
2023-05-11T12:14:23.106Z,18.35
2023-05-11T12:17:01.663Z,18.46
2023-05-11T12:19:29.234Z,18.65
2023-05-11T12:21:57.053Z,18.65
2023-05-11T12:24:24.642Z,18.49
2023-05-11T12:26:57.136Z,18.55
2023-05-11T12:29:24.886Z,18.58
2023-05-11T12:31:52.587Z,18.44
2023-05-11T12:34:22.965Z,18.46
2023-05-11T12:36:54.175Z,18.40
2023-05-11T12:39:26.782Z,18.32
2023-05-11T12:41:56.611Z,17.93
2023-05-11T12:44:26.714Z,17.20
2023-05-11T12:46:54.905Z,17.09
2023-05-11T12:49:26.333Z,17.00
2023-05-11T12:51:55.155Z,17.06
2023-05-11T12:54:30.091Z,17.09
2023-05-11T12:56:58.360Z,17.26
2023-05-11T12:59:40.336Z,17.33
2023-05-11T13:02:18.897Z,17.29
2023-05-11T13:04:48.025Z,17.30
2023-05-11T13:07:25.157Z,17.21
2023-05-11T13:10:00.604Z,17.04
2023-05-11T13:12:31.952Z,16.97
2023-05-11T13:15:12.876Z,16.92
2023-05-11T13:17:42.796Z,16.86
2023-05-11T13:20:21.716Z,16.77
2023-05-11T13:22:50.996Z,16.63
2023-05-11T13:25:21.319Z,16.44
2023-05-11T13:27:49.071Z,16.35
2023-05-11T13:30:16.628Z,16.36
2023-05-11T13:32:44.213Z,16.41
2023-05-11T13:35:11.728Z,16.53
2023-05-11T13:37:39.257Z,16.60
2023-05-11T13:40:10.466Z,16.69
2023-05-11T13:42:37.972Z,16.86
2023-05-11T13:45:05.897Z,16.98
2023-05-11T13:47:34.543Z,17.05
2023-05-11T13:50:02.293Z,17.19
2023-05-11T13:52:30.194Z,17.30
2023-05-11T13:54:57.609Z,17.36
2023-05-11T13:57:25.113Z,17.43
2023-05-11T13:59:52.521Z,17.50
2023-05-11T14:02:20.079Z,17.57
2023-05-11T14:04:47.606Z,17.65
2023-05-11T14:07:15.669Z,17.58
2023-05-11T14:09:44.020Z,17.50
2023-05-11T14:12:11.466Z,17.46
2023-05-11T14:14:39.090Z,17.40
2023-05-11T14:17:06.802Z,17.34
2023-05-11T14:19:34.298Z,17.28
2023-05-11T14:22:01.859Z,17.29
2023-05-11T14:24:29.341Z,17.31
2023-05-11T14:26:58.190Z,17.29
2023-05-11T14:29:27.026Z,17.36
2023-05-11T14:31:54.478Z,17.42
2023-05-11T14:34:21.968Z,17.57
2023-05-11T14:36:49.402Z,17.74
2023-05-11T14:39:16.929Z,17.89
2023-05-11T14:41:44.366Z,18.05
2023-05-11T14:44:11.827Z,18.13
2023-05-11T14:46:39.674Z,18.20
2023-05-11T14:49:07.568Z,18.27
2023-05-11T14:51:36.301Z,18.25
2023-05-11T14:54:04.959Z,18.27
2023-05-11T14:56:32.462Z,18.23
2023-05-11T14:59:00.036Z,18.23
2023-05-11T15:01:27.612Z,18.25
2023-05-11T15:03:55.022Z,18.30
2023-05-11T15:06:23.650Z,18.11
2023-05-11T15:08:51.402Z,18.01
2023-05-11T15:11:19.028Z,17.92
2023-05-11T15:13:49.230Z,17.95
2023-05-11T15:16:16.896Z,18.05
2023-05-11T15:18:44.486Z,18.13
2023-05-11T15:21:12.102Z,18.15
2023-05-11T15:23:39.598Z,18.21
2023-05-11T15:26:07.102Z,18.34
2023-05-11T15:28:34.771Z,18.26
2023-05-11T15:31:02.230Z,18.34
2023-05-11T15:33:29.730Z,18.38
2023-05-11T15:35:57.288Z,18.43
2023-05-11T15:38:24.710Z,18.43
2023-05-11T15:40:52.321Z,18.38
2023-05-11T15:43:19.667Z,18.35
2023-05-11T15:45:47.318Z,18.32
2023-05-11T15:48:15.262Z,18.24
2023-05-11T15:50:42.722Z,18.14
2023-05-11T15:53:10.122Z,18.01
2023-05-11T15:55:39.129Z,17.90
2023-05-11T15:58:08.372Z,17.86
2023-05-11T16:00:36.155Z,17.89
2023-05-11T16:03:03.802Z,17.89
2023-05-11T16:05:32.680Z,17.93
2023-05-11T16:08:00.223Z,17.93
2023-05-11T16:10:27.739Z,17.98
2023-05-11T16:12:57.674Z,17.90
2023-05-11T16:15:26.587Z,17.69
2023-05-11T16:17:54.080Z,17.58
2023-05-11T16:20:21.849Z,17.54
2023-05-11T16:22:49.260Z,17.55
2023-05-11T16:25:17.518Z,17.50
2023-05-11T16:27:45.054Z,17.49
2023-05-11T16:30:23.150Z,17.57
2023-05-11T16:32:53.716Z,17.47
2023-05-11T16:35:21.464Z,17.45
2023-05-11T16:37:49.169Z,17.42
2023-05-11T16:40:21.378Z,17.43
2023-05-11T16:42:49.400Z,17.50
2023-05-11T16:45:16.915Z,17.56
2023-05-11T16:47:47.419Z,17.61
2023-05-11T16:50:16.531Z,17.61
2023-05-11T16:52:44.202Z,17.71
2023-05-11T16:55:11.993Z,17.66
2023-05-11T16:57:39.398Z,17.73
2023-05-11T17:00:08.553Z,17.65
2023-05-11T17:02:36.564Z,17.53
2023-05-11T17:05:05.714Z,17.43
2023-05-11T17:07:33.782Z,17.44
2023-05-11T17:10:01.297Z,17.34
2023-05-11T17:12:29.666Z,17.34
2023-05-11T17:14:57.738Z,17.27
2023-05-11T17:17:25.347Z,17.11
2023-05-11T17:19:54.360Z,16.98
2023-05-11T17:22:21.759Z,16.88
2023-05-11T17:24:49.267Z,16.77
2023-05-11T17:27:16.844Z,16.81
2023-05-11T17:29:44.532Z,16.74
2023-05-11T17:32:12.136Z,16.78
2023-05-11T17:34:40.214Z,16.78
2023-05-11T17:37:12.636Z,16.67
2023-05-11T17:39:47.224Z,16.68
2023-05-11T17:42:15.538Z,16.55
2023-05-11T17:44:42.917Z,16.49
2023-05-11T17:47:10.439Z,16.63
2023-05-11T17:49:37.844Z,16.54
2023-05-11T17:52:05.636Z,16.68
2023-05-11T17:54:33.213Z,16.67
2023-05-11T17:57:00.984Z,16.60
2023-05-11T17:59:28.402Z,16.53
2023-05-11T18:01:55.961Z,16.34
2023-05-11T18:04:23.445Z,16.30
2023-05-11T18:06:51.290Z,16.15
2023-05-11T18:09:19.771Z,16.04
2023-05-11T18:11:47.248Z,16.01
2023-05-11T18:14:14.707Z,15.98
2023-05-11T18:16:42.277Z,16.08
2023-05-11T18:19:09.930Z,16.06
2023-05-11T18:21:38.157Z,16.09
2023-05-11T18:24:06.348Z,16.08
2023-05-11T18:26:34.095Z,15.81
2023-05-11T18:29:02.169Z,15.80
2023-05-11T18:31:29.925Z,15.71
2023-05-11T18:33:57.489Z,15.70
2023-05-11T18:36:25.077Z,15.86
2023-05-11T18:38:52.704Z,15.83
2023-05-11T18:41:20.855Z,15.72
2023-05-11T18:43:48.485Z,15.59
2023-05-11T18:46:15.957Z,15.56
2023-05-11T18:48:43.436Z,15.41
2023-05-11T18:51:11.115Z,15.46
2023-05-11T18:53:38.586Z,15.37
2023-05-11T18:56:06.143Z,15.17
2023-05-11T18:58:33.869Z,15.06
2023-05-11T19:01:01.377Z,15.00
2023-05-11T19:03:31.807Z,15.01
2023-05-11T19:06:02.127Z,15.08
2023-05-11T19:08:31.604Z,14.92
2023-05-11T19:11:04.947Z,14.73
2023-05-11T19:13:32.770Z,14.65
2023-05-11T19:16:00.179Z,14.72
2023-05-11T19:18:28.665Z,14.74
2023-05-11T19:20:56.283Z,14.64
2023-05-11T19:23:24.099Z,14.47
2023-05-11T19:25:51.745Z,14.39
2023-05-11T19:28:19.475Z,14.29
2023-05-11T19:30:46.907Z,14.15
2023-05-11T19:33:14.838Z,14.23
2023-05-11T19:35:42.442Z,14.15
2023-05-11T19:38:17.419Z,14.04
2023-05-11T19:40:46.547Z,13.86
2023-05-11T19:43:14.836Z,13.83
2023-05-11T19:45:45.501Z,13.86
2023-05-11T19:48:13.959Z,13.77
2023-05-11T19:50:41.656Z,13.83
2023-05-11T19:53:09.133Z,13.74
2023-05-11T19:55:36.492Z,13.74
2023-05-11T19:58:04.155Z,13.68
2023-05-11T20:00:31.772Z,13.49
2023-05-11T20:02:59.591Z,13.48
2023-05-11T20:05:27.252Z,13.58
2023-05-11T20:07:54.783Z,13.48
2023-05-11T20:10:22.329Z,13.34
2023-05-11T20:12:51.357Z,13.31
2023-05-11T20:15:19.044Z,13.28
2023-05-11T20:17:46.753Z,13.45
2023-05-11T20:20:14.426Z,13.53
2023-05-11T20:22:42.300Z,13.34
2023-05-11T20:25:17.532Z,13.36
2023-05-11T20:27:46.064Z,13.32
2023-05-11T20:30:14.124Z,13.16
2023-05-11T20:34:06.790Z,13.11
2023-05-11T20:35:29.870Z,13.05
2023-05-11T20:37:57.344Z,12.84
2023-05-11T20:40:25.722Z,12.91
2023-05-11T20:42:53.143Z,12.95
2023-05-11T20:45:20.786Z,12.85
2023-05-11T20:47:48.368Z,12.77
2023-05-11T20:50:15.953Z,12.72
2023-05-11T20:52:43.528Z,12.62
2023-05-11T20:55:11.172Z,12.58
2023-05-11T20:57:38.689Z,12.55
2023-05-11T21:00:11.005Z,12.72
2023-05-11T21:02:39.077Z,12.87
2023-05-11T21:05:06.963Z,12.87
2023-05-11T21:07:34.558Z,12.80
2023-05-11T21:10:02.195Z,12.50
2023-05-11T21:12:29.754Z,12.50
2023-05-11T21:14:57.385Z,12.42
2023-05-11T21:17:25.006Z,12.34
2023-05-11T21:19:52.489Z,12.31
2023-05-11T21:22:19.953Z,12.44
2023-05-11T21:24:47.469Z,12.29
2023-05-11T21:27:15.152Z,12.28
2023-05-11T21:29:42.557Z,12.23
2023-05-11T21:32:10.373Z,12.20
2023-05-11T21:34:38.496Z,12.21
2023-05-11T21:37:06.122Z,12.20
2023-05-11T21:39:33.652Z,12.35
2023-05-11T21:42:02.860Z,12.22
2023-05-11T21:44:30.471Z,12.20
2023-05-11T21:46:58.282Z,12.16
2023-05-11T21:49:26.355Z,12.16
2023-05-11T21:51:53.938Z,12.05
2023-05-11T21:54:22.540Z,11.98
2023-05-11T21:56:52.138Z,11.95
2023-05-11T21:59:20.074Z,11.96
2023-05-11T22:01:49.268Z,11.96
2023-05-11T22:04:16.823Z,11.96
2023-05-11T22:06:44.368Z,11.93
2023-05-11T22:09:12.118Z,11.89
2023-05-11T22:11:40.073Z,11.82
2023-05-11T22:14:07.597Z,11.77
2023-05-11T22:16:35.169Z,11.77
2023-05-11T22:19:02.619Z,11.73
2023-05-11T22:21:30.238Z,11.75
2023-05-11T22:23:57.932Z,11.71
2023-05-11T22:26:26.629Z,11.70
2023-05-11T22:28:54.161Z,11.69
2023-05-11T22:31:21.829Z,11.69
2023-05-11T22:33:49.285Z,11.62
2023-05-11T22:36:16.733Z,11.57
2023-05-11T22:38:44.198Z,11.58
2023-05-11T22:41:11.785Z,11.55
2023-05-11T22:43:39.197Z,11.47
2023-05-11T22:46:07.094Z,11.46
2023-05-11T22:48:34.613Z,11.45
2023-05-11T22:51:03.959Z,11.41
2023-05-11T22:53:31.701Z,11.37
2023-05-11T22:56:06.476Z,11.30
2023-05-11T22:58:34.074Z,11.27
2023-05-11T23:01:01.828Z,11.25
2023-05-11T23:03:29.454Z,11.19
2023-05-11T23:05:56.811Z,11.18
2023-05-11T23:08:26.609Z,11.13
2023-05-11T23:10:54.277Z,11.06
2023-05-11T23:13:22.568Z,11.00
2023-05-11T23:15:50.524Z,10.92
2023-05-11T23:18:33.434Z,10.87
2023-05-11T23:21:01.032Z,10.89
2023-05-11T23:23:28.518Z,10.85
2023-05-11T23:25:56.080Z,10.87
2023-05-11T23:28:23.461Z,10.83
2023-05-11T23:30:51.608Z,10.82
2023-05-11T23:33:19.171Z,10.79
2023-05-11T23:35:47.934Z,10.78
2023-05-11T23:38:15.383Z,10.74
2023-05-11T23:40:43.270Z,10.77
2023-05-11T23:43:10.627Z,10.75
2023-05-11T23:45:38.110Z,10.72
2023-05-11T23:48:06.263Z,10.70
2023-05-11T23:50:34.033Z,10.69
2023-05-11T23:53:01.603Z,10.68
2023-05-11T23:55:29.051Z,10.63
2023-05-11T23:57:58.774Z,10.59
